createdAt,value
2018-07-23T00:00:18.621Z,5.60
2018-07-23T00:02:47.550Z,5.93
2018-07-23T00:05:16.439Z,6.13
2018-07-23T00:07:45.338Z,6.07
2018-07-23T00:10:14.196Z,7.10
2018-07-23T00:12:43.103Z,5.90
2018-07-23T00:15:12.004Z,7.00
2018-07-23T00:17:40.935Z,6.50
2018-07-23T00:20:09.786Z,6.80
2018-07-23T00:22:38.734Z,6.47
2018-07-23T00:25:07.602Z,6.97
2018-07-23T00:27:36.484Z,6.03
2018-07-23T00:30:06.002Z,6.50
2018-07-23T00:32:34.869Z,6.40
2018-07-23T00:35:03.759Z,6.30
2018-07-23T00:37:32.629Z,6.73
2018-07-23T00:40:01.470Z,6.40
2018-07-23T00:42:30.367Z,7.00
2018-07-23T00:44:59.262Z,6.80
2018-07-23T00:47:28.261Z,7.40
2018-07-23T00:49:57.161Z,6.60
2018-07-23T00:52:26.153Z,6.70
2018-07-23T00:54:55.055Z,6.27
2018-07-23T00:57:23.991Z,6.23
2018-07-23T00:59:52.922Z,5.80
2018-07-23T01:02:21.882Z,6.10
2018-07-23T01:04:50.737Z,5.70
2018-07-23T01:07:19.715Z,5.93
2018-07-23T01:09:48.639Z,5.53
2018-07-23T01:12:30.252Z,6.10
2018-07-23T01:14:59.218Z,6.10
2018-07-23T01:17:28.224Z,6.50
2018-07-23T01:19:58.173Z,5.83
2018-07-23T01:22:27.846Z,6.93
2018-07-23T01:24:57.735Z,7.80
2018-07-23T01:27:26.640Z,6.70
2018-07-23T01:29:55.558Z,6.70
2018-07-23T01:32:24.443Z,5.87
2018-07-23T01:34:53.462Z,6.57
2018-07-23T01:37:22.317Z,5.90
2018-07-23T01:39:51.229Z,5.27
2018-07-23T01:42:20.121Z,5.97
2018-07-23T01:44:49.003Z,5.50
2018-07-23T01:47:17.851Z,5.13
2018-07-23T01:49:46.769Z,5.80
2018-07-23T01:52:15.695Z,4.80
2018-07-23T01:54:44.507Z,4.97
2018-07-23T01:57:13.433Z,4.87
2018-07-23T01:59:42.314Z,4.97
2018-07-23T02:02:11.255Z,5.47
2018-07-23T02:04:40.150Z,5.20
2018-07-23T02:07:09.948Z,5.33
2018-07-23T02:09:38.832Z,5.07
2018-07-23T02:12:07.826Z,5.23
2018-07-23T02:14:36.730Z,5.03
2018-07-23T02:17:05.764Z,5.17
2018-07-23T02:19:34.667Z,5.53
2018-07-23T02:22:03.795Z,5.17
2018-07-23T02:24:32.654Z,5.30
2018-07-23T02:27:01.615Z,5.47
2018-07-23T02:29:30.479Z,5.43
2018-07-23T02:31:59.355Z,5.10
2018-07-23T02:34:28.302Z,5.63
2018-07-23T02:36:57.179Z,5.00
2018-07-23T02:39:26.066Z,5.37
2018-07-23T02:41:54.972Z,5.20
2018-07-23T02:44:23.848Z,5.13
2018-07-23T02:46:52.719Z,5.20
2018-07-23T02:49:21.694Z,4.97
2018-07-23T02:51:50.790Z,5.13
2018-07-23T02:54:19.738Z,5.50
2018-07-23T02:56:48.700Z,5.23
2018-07-23T02:59:17.569Z,5.83
2018-07-23T03:01:46.490Z,5.57
2018-07-23T03:04:15.692Z,6.37
2018-07-23T03:06:44.564Z,5.70
2018-07-23T03:09:13.470Z,5.70
2018-07-23T03:11:42.352Z,5.87
2018-07-23T03:14:11.340Z,5.50
2018-07-23T03:16:40.219Z,5.23
2018-07-23T03:19:09.200Z,6.13
2018-07-23T03:21:38.142Z,6.77
2018-07-23T03:24:06.990Z,6.43
2018-07-23T03:26:35.866Z,6.87
2018-07-23T03:29:04.733Z,6.80
2018-07-23T03:31:33.556Z,7.60
2018-07-23T03:34:02.455Z,7.57
2018-07-23T03:36:31.264Z,7.43
2018-07-23T03:39:00.060Z,8.10
2018-07-23T03:41:29.007Z,7.83
2018-07-23T03:43:57.854Z,7.13
2018-07-23T03:46:26.774Z,7.23
2018-07-23T03:48:55.652Z,7.27
2018-07-23T03:51:24.524Z,7.33
2018-07-23T03:53:53.305Z,7.40
2018-07-23T03:56:22.129Z,7.27
2018-07-23T03:58:50.963Z,7.00
2018-07-23T04:01:19.816Z,7.00
2018-07-23T04:03:48.692Z,7.93
2018-07-23T04:06:17.499Z,9.03
2018-07-23T04:08:46.310Z,8.27
2018-07-23T04:11:15.214Z,7.70
2018-07-23T04:13:43.983Z,7.63
2018-07-23T04:16:12.773Z,7.43
2018-07-23T04:18:41.595Z,7.10
2018-07-23T04:21:10.380Z,7.30
2018-07-23T04:23:39.170Z,7.43
2018-07-23T04:26:07.992Z,7.80
2018-07-23T04:28:36.838Z,8.10
2018-07-23T04:31:05.646Z,8.27
2018-07-23T04:33:34.496Z,9.10
2018-07-23T04:36:03.362Z,9.23
2018-07-23T04:38:32.193Z,9.30
2018-07-23T04:41:01.134Z,9.70
2018-07-23T04:43:29.968Z,9.83
2018-07-23T04:45:58.784Z,9.60
2018-07-23T04:48:27.636Z,9.73
2018-07-23T04:50:56.592Z,9.13
2018-07-23T04:53:25.419Z,9.50
2018-07-23T04:55:54.321Z,9.50
2018-07-23T04:58:23.154Z,9.50
2018-07-23T05:00:51.953Z,9.00
2018-07-23T05:03:20.873Z,9.67
2018-07-23T05:05:49.694Z,8.77
2018-07-23T05:08:18.565Z,9.27
2018-07-23T05:10:47.549Z,9.53
2018-07-23T05:13:16.339Z,9.20
2018-07-23T05:15:45.224Z,8.80
2018-07-23T05:18:14.339Z,8.10
2018-07-23T05:20:43.277Z,8.50
2018-07-23T05:23:12.160Z,9.13
2018-07-23T05:25:41.265Z,9.37
2018-07-23T05:28:10.151Z,7.37
2018-07-23T05:30:38.983Z,7.77
2018-07-23T05:33:08.349Z,7.70
2018-07-23T05:35:37.180Z,8.07
2018-07-23T05:38:06.045Z,7.70
2018-07-23T05:40:34.880Z,8.67
2018-07-23T05:43:03.827Z,7.23
2018-07-23T05:45:32.722Z,8.03
2018-07-23T05:48:01.576Z,7.33
2018-07-23T05:50:30.765Z,7.60
2018-07-23T05:52:59.748Z,6.83
2018-07-23T05:55:28.644Z,7.33
2018-07-23T05:57:57.534Z,6.97
2018-07-23T06:00:26.371Z,6.60
2018-07-23T06:02:55.402Z,6.70
2018-07-23T06:05:24.289Z,6.57
2018-07-23T06:07:53.118Z,7.03
2018-07-23T06:10:22.057Z,6.97
2018-07-23T06:12:51.182Z,6.47
2018-07-23T06:15:20.148Z,6.93
2018-07-23T06:17:49.434Z,7.27
2018-07-23T06:20:18.571Z,6.80
2018-07-23T06:22:47.557Z,6.80
2018-07-23T06:25:16.654Z,6.43
2018-07-23T06:27:45.608Z,6.90
2018-07-23T06:30:14.584Z,6.27
2018-07-23T06:32:43.532Z,6.80
2018-07-23T06:35:12.585Z,6.87
2018-07-23T06:37:41.706Z,6.80
2018-07-23T06:40:10.904Z,5.90
2018-07-23T06:42:39.973Z,6.87
2018-07-23T06:45:08.922Z,7.13
2018-07-23T06:47:37.896Z,6.23
2018-07-23T06:50:07.116Z,6.40
2018-07-23T06:52:36.086Z,6.40
2018-07-23T06:55:05.289Z,6.00
2018-07-23T06:57:34.502Z,7.17
2018-07-23T07:00:03.516Z,6.30
2018-07-23T07:02:32.525Z,6.00
2018-07-23T07:05:01.809Z,8.13
2018-07-23T07:07:30.818Z,7.53
2018-07-23T07:09:59.717Z,6.50
2018-07-23T07:12:28.810Z,6.90
2018-07-23T07:14:58.289Z,6.57
2018-07-23T07:17:27.239Z,8.93
2018-07-23T07:19:56.410Z,6.27
2018-07-23T07:22:25.347Z,6.57
2018-07-23T07:24:54.413Z,6.83
2018-07-23T07:27:23.395Z,6.57
2018-07-23T07:29:52.387Z,6.33
2018-07-23T07:32:21.450Z,6.57
2018-07-23T07:34:50.538Z,6.50
2018-07-23T07:37:19.589Z,6.50
2018-07-23T07:39:48.991Z,6.40
2018-07-23T07:42:18.564Z,6.17
2018-07-23T07:44:47.883Z,11.83
2018-07-23T07:47:17.068Z,6.33
2018-07-23T07:49:46.270Z,6.47
2018-07-23T07:52:15.328Z,6.20
2018-07-23T07:54:44.912Z,5.37
2018-07-23T08:00:04.153Z,5.57
2018-07-23T08:02:33.556Z,5.57
2018-07-23T08:05:02.770Z,5.60
2018-07-23T08:07:31.763Z,5.13
2018-07-23T08:10:00.698Z,5.40
2018-07-23T08:12:29.791Z,5.07
2018-07-23T08:14:58.654Z,5.17
2018-07-23T08:17:27.532Z,4.80
2018-07-23T08:19:56.622Z,5.60
2018-07-23T08:22:25.590Z,4.70
2018-07-23T08:24:55.842Z,5.60
2018-07-23T08:27:25.356Z,5.73
2018-07-23T08:29:54.715Z,5.27
2018-07-23T08:32:24.095Z,4.90
2018-07-23T08:34:53.019Z,5.30
2018-07-23T08:37:22.474Z,4.77
2018-07-23T08:39:51.744Z,4.30
2018-07-23T08:42:21.178Z,4.80
2018-07-23T08:44:50.559Z,5.60
2018-07-23T08:47:19.936Z,5.03
2018-07-23T08:49:48.949Z,5.00
2018-07-23T08:52:18.042Z,5.23
2018-07-23T08:54:47.459Z,4.93
2018-07-23T08:57:16.463Z,4.67
2018-07-23T08:59:46.330Z,5.00
2018-07-23T09:02:15.531Z,4.67
2018-07-23T09:04:45.000Z,4.60
2018-07-23T09:07:13.964Z,4.47
2018-07-23T09:09:43.057Z,4.93
2018-07-23T09:12:12.100Z,5.60
2018-07-23T09:14:41.960Z,5.00
2018-07-23T09:17:12.748Z,5.20
2018-07-23T09:19:41.694Z,5.03
2018-07-23T09:22:10.908Z,4.90
2018-07-23T09:24:39.973Z,5.10
2018-07-23T09:27:09.134Z,4.63
2018-07-23T09:29:38.401Z,5.30
2018-07-23T09:32:08.217Z,5.00
2018-07-23T09:34:37.878Z,5.07
2018-07-23T09:37:06.848Z,5.07
2018-07-23T09:39:35.837Z,4.83
2018-07-23T09:42:05.357Z,4.83
2018-07-23T09:44:34.588Z,5.13
2018-07-23T09:47:03.646Z,4.80
2018-07-23T09:49:32.928Z,4.40
2018-07-23T09:52:02.261Z,4.10
2018-07-23T09:54:31.645Z,5.27
2018-07-23T09:57:00.798Z,4.40
2018-07-23T09:59:29.709Z,4.77
2018-07-23T10:01:58.577Z,5.13
2018-07-23T10:04:27.526Z,4.73
2018-07-23T10:06:56.574Z,4.80
2018-07-23T10:09:25.906Z,4.40
2018-07-23T10:11:55.028Z,4.70
2018-07-23T10:14:24.229Z,5.40
2018-07-23T10:16:53.365Z,5.30
2018-07-23T10:19:22.871Z,4.70
2018-07-23T10:21:52.084Z,4.70
2018-07-23T10:24:21.331Z,5.20
2018-07-23T10:26:50.480Z,4.50
2018-07-23T10:29:20.377Z,4.60
2018-07-23T10:31:49.383Z,4.63
2018-07-23T10:34:18.411Z,5.27
2018-07-23T10:36:47.499Z,5.17
2018-07-23T10:39:16.581Z,3.60
2018-07-23T10:41:45.782Z,3.50
2018-07-23T10:44:14.740Z,3.20
2018-07-23T10:46:43.889Z,2.87
2018-07-23T10:49:12.930Z,3.00
2018-07-23T10:51:41.976Z,3.27
2018-07-23T10:54:10.847Z,3.07
2018-07-23T10:56:39.899Z,3.57
2018-07-23T10:59:08.986Z,3.10
2018-07-23T11:01:37.896Z,3.30
2018-07-23T11:04:07.005Z,3.17
2018-07-23T11:06:36.085Z,3.27
2018-07-23T11:09:06.518Z,2.83
2018-07-23T11:11:35.571Z,3.10
2018-07-23T11:14:04.485Z,3.07
2018-07-23T11:16:33.457Z,3.30
2018-07-23T11:19:02.865Z,3.17
2018-07-23T11:21:31.877Z,2.90
2018-07-23T11:24:00.837Z,3.20
2018-07-23T11:26:29.819Z,3.40
2018-07-23T11:28:58.909Z,3.50
2018-07-23T11:31:27.950Z,3.27
2018-07-23T11:33:56.845Z,3.23
2018-07-23T11:36:25.803Z,3.20
2018-07-23T11:38:54.890Z,3.40
2018-07-23T11:41:24.068Z,3.40
2018-07-23T11:43:53.077Z,3.43
2018-07-23T11:46:24.982Z,3.50
2018-07-23T11:48:51.008Z,4.20
2018-07-23T11:51:20.051Z,3.50
2018-07-23T11:53:49.074Z,3.93
2018-07-23T11:56:18.227Z,3.93
2018-07-23T11:58:47.126Z,3.53
2018-07-23T12:01:16.343Z,3.73
2018-07-23T12:03:45.571Z,3.40
2018-07-23T12:06:14.639Z,3.70
2018-07-23T12:08:43.613Z,3.40
2018-07-23T12:11:12.520Z,3.20
2018-07-23T12:13:41.395Z,3.70
2018-07-23T12:16:10.377Z,10.03
2018-07-23T12:18:39.698Z,6.50
2018-07-23T12:21:08.633Z,3.97
2018-07-23T12:23:37.485Z,3.20
2018-07-23T12:26:06.427Z,3.10
2018-07-23T12:28:35.259Z,3.07
2018-07-23T12:31:04.123Z,4.37
2018-07-23T12:33:33.146Z,3.40
2018-07-23T12:36:02.003Z,3.30
2018-07-23T12:38:30.854Z,3.43
2018-07-23T12:40:59.754Z,3.10
2018-07-23T12:43:28.639Z,3.00
2018-07-23T12:45:57.602Z,2.60
2018-07-23T12:48:26.577Z,2.80
2018-07-23T12:50:55.494Z,2.93
2018-07-23T12:53:24.548Z,3.43
2018-07-23T12:55:53.579Z,3.97
2018-07-23T12:58:22.523Z,5.87
2018-07-23T13:00:51.497Z,3.80
2018-07-23T13:03:20.648Z,3.90
2018-07-23T13:08:30.514Z,4.30
2018-07-23T13:10:59.481Z,3.30
2018-07-23T13:13:28.397Z,2.70
2018-07-23T13:15:57.398Z,2.67
2018-07-23T13:18:26.400Z,3.23
2018-07-23T13:20:55.408Z,2.70
2018-07-23T13:23:24.353Z,2.80
2018-07-23T13:25:53.397Z,2.50
2018-07-23T13:28:22.468Z,2.53
2018-07-23T13:30:51.440Z,2.30
2018-07-23T13:33:20.370Z,2.83
2018-07-23T13:35:49.313Z,2.80
2018-07-23T13:38:19.245Z,2.73
2018-07-23T13:40:48.226Z,3.00
2018-07-23T13:43:17.268Z,3.17
2018-07-23T13:45:46.227Z,3.63
2018-07-23T13:48:15.222Z,4.10
2018-07-23T13:50:44.258Z,4.07
2018-07-23T13:53:13.192Z,4.57
2018-07-23T13:55:42.387Z,4.13
2018-07-23T13:58:11.349Z,4.50
2018-07-23T14:00:40.308Z,4.80
2018-07-23T14:03:09.353Z,4.53
2018-07-23T14:05:38.214Z,4.70
2018-07-23T14:08:07.198Z,4.70
2018-07-23T14:10:36.171Z,4.87
2018-07-23T14:13:05.104Z,4.97
2018-07-23T14:15:34.077Z,5.23
2018-07-23T14:18:03.181Z,5.20
2018-07-23T14:20:32.095Z,5.17
2018-07-23T14:23:01.240Z,4.87
2018-07-23T14:25:30.164Z,5.53
2018-07-23T14:27:59.025Z,5.23
2018-07-23T14:30:28.209Z,5.30
2018-07-23T14:32:57.112Z,5.23
2018-07-23T14:35:25.997Z,4.63
2018-07-23T14:37:54.862Z,4.67
2018-07-23T14:40:23.836Z,4.80
2018-07-23T14:42:52.824Z,5.20
2018-07-23T14:45:21.740Z,4.30
2018-07-23T14:47:50.717Z,4.37
2018-07-23T14:50:19.637Z,4.50
2018-07-23T14:52:48.606Z,4.63
2018-07-23T14:55:17.590Z,5.13
2018-07-23T14:57:46.690Z,4.57
2018-07-23T15:00:15.871Z,4.90
2018-07-23T15:02:44.825Z,4.43
2018-07-23T15:05:13.816Z,4.50
2018-07-23T15:07:42.733Z,4.43
2018-07-23T15:10:11.712Z,4.70
2018-07-23T15:12:40.634Z,4.30
2018-07-23T15:15:09.675Z,5.27
2018-07-23T15:17:38.808Z,6.33
2018-07-23T15:20:07.816Z,6.57
2018-07-23T15:22:36.766Z,6.53
2018-07-23T15:25:05.828Z,6.17
2018-07-23T15:27:34.860Z,6.20
2018-07-23T15:30:03.863Z,5.90
2018-07-23T15:32:32.793Z,5.30
2018-07-23T15:35:01.789Z,5.57
2018-07-23T15:37:30.785Z,5.50
2018-07-23T15:39:59.890Z,5.03
2018-07-23T15:42:28.846Z,4.80
2018-07-23T15:44:58.083Z,5.37
2018-07-23T15:47:26.785Z,5.17
2018-07-23T15:49:55.776Z,5.53
2018-07-23T15:52:24.783Z,5.07
2018-07-23T15:54:53.829Z,5.33
2018-07-23T15:57:22.811Z,5.63
2018-07-23T15:59:51.862Z,5.80
2018-07-23T16:02:20.793Z,5.77
2018-07-23T16:04:49.680Z,5.03
2018-07-23T16:07:18.625Z,5.60
2018-07-23T16:09:47.610Z,5.20
2018-07-23T16:12:16.517Z,5.43
2018-07-23T16:14:45.442Z,5.67
2018-07-23T16:17:14.415Z,5.70
2018-07-23T16:19:43.345Z,5.30
2018-07-23T16:22:12.283Z,6.07
2018-07-23T16:24:41.254Z,6.20
2018-07-23T16:27:10.164Z,5.77
2018-07-23T16:29:39.081Z,5.77
2018-07-23T16:32:08.113Z,5.97
2018-07-23T16:34:37.125Z,5.60
2018-07-23T16:37:06.048Z,5.93
2018-07-23T16:39:34.992Z,5.80
2018-07-23T16:42:04.046Z,6.40
2018-07-23T16:44:32.934Z,6.30
2018-07-23T16:47:02.036Z,5.97
2018-07-23T16:49:31.020Z,6.00
2018-07-23T16:51:59.945Z,5.80
2018-07-23T16:54:28.810Z,5.77
2018-07-23T16:56:57.782Z,5.77
2018-07-23T16:59:26.727Z,5.33
2018-07-23T17:01:55.681Z,4.83
2018-07-23T17:04:24.945Z,4.87
2018-07-23T17:06:54.152Z,4.50
2018-07-23T17:09:23.045Z,4.07
2018-07-23T17:11:51.897Z,4.17
2018-07-23T17:14:20.732Z,4.30
2018-07-23T17:16:49.666Z,4.10
2018-07-23T17:19:18.507Z,4.43
2018-07-23T17:21:47.497Z,4.20
2018-07-23T17:24:16.380Z,4.40
2018-07-23T17:26:45.281Z,4.67
2018-07-23T17:29:14.165Z,5.03
2018-07-23T17:31:43.235Z,5.57
2018-07-23T17:34:12.163Z,5.10
2018-07-23T17:36:41.089Z,5.00
2018-07-23T17:39:11.989Z,5.40
2018-07-23T17:41:40.985Z,4.90
2018-07-23T17:44:09.945Z,4.80
2018-07-23T17:46:38.816Z,4.57
2018-07-23T17:49:07.692Z,5.93
2018-07-23T17:51:36.557Z,5.63
2018-07-23T17:54:05.500Z,5.13
2018-07-23T17:56:34.441Z,7.30
2018-07-23T17:59:03.263Z,5.63
2018-07-23T18:01:32.255Z,4.97
2018-07-23T18:04:01.085Z,4.80
2018-07-23T18:06:30.066Z,4.67
2018-07-23T18:08:58.919Z,4.60
2018-07-23T18:11:27.922Z,3.80
2018-07-23T18:13:56.855Z,3.70
2018-07-23T18:16:25.816Z,3.70
2018-07-23T18:18:54.652Z,3.77
2018-07-23T18:21:23.496Z,3.70
2018-07-23T18:23:52.389Z,3.93
2018-07-23T18:26:21.249Z,4.27
2018-07-23T18:28:50.165Z,3.70
2018-07-23T18:31:19.046Z,4.03
2018-07-23T18:33:47.869Z,3.90
2018-07-23T18:36:16.813Z,4.37
2018-07-23T18:38:45.757Z,4.13
2018-07-23T18:41:14.708Z,3.33
2018-07-23T18:43:43.605Z,3.43
2018-07-23T18:46:12.542Z,3.27
2018-07-23T18:49:50.287Z,3.20
2018-07-23T18:52:19.741Z,3.17
2018-07-23T18:54:49.736Z,3.20
2018-07-23T18:57:18.655Z,2.73
2018-07-23T18:59:47.585Z,2.93
2018-07-23T19:02:17.788Z,3.20
2018-07-23T19:04:46.645Z,3.40
2018-07-23T19:07:15.971Z,3.33
2018-07-23T19:09:44.869Z,3.57
2018-07-23T19:12:13.778Z,3.90
2018-07-23T19:14:42.657Z,3.47
2018-07-23T19:17:13.092Z,3.53
2018-07-23T19:19:41.968Z,3.13
2018-07-23T19:22:10.888Z,2.97
2018-07-23T19:24:39.888Z,3.10
2018-07-23T19:27:08.864Z,3.27
2018-07-23T19:29:38.764Z,3.37
2018-07-23T19:32:07.667Z,3.50
2018-07-23T19:34:36.535Z,2.93
2018-07-23T19:37:05.545Z,3.20
2018-07-23T19:39:34.441Z,3.20
2018-07-23T19:42:03.447Z,3.43
2018-07-23T19:44:32.354Z,3.33
2018-07-23T19:47:01.287Z,3.20
2018-07-23T19:49:30.113Z,3.60
2018-07-23T19:51:59.023Z,3.50
2018-07-23T19:54:27.914Z,3.40
2018-07-23T19:56:57.614Z,3.20
2018-07-23T19:59:26.634Z,3.80
2018-07-23T20:01:55.527Z,3.10
2018-07-23T20:04:24.412Z,3.30
2018-07-23T20:06:53.321Z,3.17
2018-07-23T20:09:22.148Z,3.37
2018-07-23T20:11:51.322Z,3.20
2018-07-23T20:14:20.208Z,3.10
2018-07-23T20:16:49.087Z,3.30
2018-07-23T20:19:18.124Z,3.83
2018-07-23T20:21:46.969Z,3.83
2018-07-23T20:24:15.827Z,4.30
2018-07-23T20:26:44.730Z,4.87
2018-07-23T20:29:13.616Z,4.60
2018-07-23T20:31:42.549Z,5.07
2018-07-23T20:34:11.545Z,5.03
2018-07-23T20:36:40.470Z,9.00
2018-07-23T20:39:09.292Z,4.60
2018-07-23T20:41:38.102Z,4.47
2018-07-23T20:44:07.125Z,4.40
2018-07-23T20:46:35.946Z,4.73
2018-07-23T20:49:04.843Z,4.50
2018-07-23T20:51:33.862Z,4.50
2018-07-23T20:54:02.746Z,4.60
2018-07-23T20:56:31.656Z,4.70
2018-07-23T20:59:00.761Z,4.60
2018-07-23T21:01:29.786Z,4.83
2018-07-23T21:03:58.736Z,5.33
2018-07-23T21:06:27.780Z,5.20
2018-07-23T21:08:56.716Z,5.00
2018-07-23T21:11:25.623Z,5.10
2018-07-23T21:13:55.140Z,5.67
2018-07-23T21:16:24.000Z,5.33
2018-07-23T21:18:52.966Z,5.30
2018-07-23T21:21:21.959Z,5.83
2018-07-23T21:23:50.848Z,5.60
2018-07-23T21:26:19.745Z,5.87
2018-07-23T21:28:48.733Z,5.63
2018-07-23T21:31:17.598Z,5.57
2018-07-23T21:33:46.485Z,5.83
2018-07-23T21:36:15.347Z,6.00
2018-07-23T21:38:44.219Z,5.70
2018-07-23T21:44:16.847Z,6.50
2018-07-23T21:46:45.755Z,6.43
2018-07-23T21:49:14.664Z,5.97
2018-07-23T21:51:43.559Z,6.40
2018-07-23T21:54:12.570Z,6.90
2018-07-23T21:56:41.377Z,6.50
2018-07-23T21:59:10.374Z,6.80
2018-07-23T22:01:39.185Z,6.90
2018-07-23T22:04:08.061Z,7.07
2018-07-23T22:06:36.885Z,6.83
2018-07-23T22:09:08.304Z,7.47
2018-07-23T22:11:37.489Z,7.67
2018-07-23T22:14:07.579Z,7.07
2018-07-23T22:16:36.471Z,7.20
2018-07-23T22:19:05.475Z,7.03
2018-07-23T22:21:34.363Z,6.87
2018-07-23T22:24:03.256Z,6.97
2018-07-23T22:26:32.193Z,6.83
2018-07-23T22:29:01.074Z,6.90
2018-07-23T22:31:29.905Z,7.03
2018-07-23T22:33:58.842Z,6.90
2018-07-23T22:36:27.710Z,5.87
2018-07-23T22:38:56.652Z,5.60
2018-07-23T22:41:25.524Z,4.87
2018-07-23T22:43:54.380Z,4.70
2018-07-23T22:46:23.196Z,4.47
2018-07-23T22:48:52.179Z,4.30
2018-07-23T22:51:21.485Z,4.47
2018-07-23T22:53:51.395Z,4.10
2018-07-23T22:56:20.265Z,3.70
2018-07-23T22:58:49.113Z,3.90
2018-07-23T23:01:18.083Z,3.90
2018-07-23T23:03:46.965Z,3.53
2018-07-23T23:06:15.754Z,3.90
2018-07-23T23:08:44.579Z,3.60
2018-07-23T23:11:13.512Z,3.47
2018-07-23T23:13:42.347Z,4.50
2018-07-23T23:16:11.296Z,3.93
2018-07-23T23:18:40.260Z,4.23
2018-07-23T23:21:09.488Z,4.63
2018-07-23T23:23:38.311Z,4.10
2018-07-23T23:26:07.397Z,3.77
2018-07-23T23:28:36.234Z,4.13
2018-07-23T23:31:05.121Z,4.00
2018-07-23T23:33:34.018Z,3.83
2018-07-23T23:36:02.857Z,4.30
2018-07-23T23:38:31.687Z,3.83
2018-07-23T23:41:00.589Z,4.10
2018-07-23T23:43:29.500Z,3.83
2018-07-23T23:45:58.316Z,3.40
2018-07-23T23:48:27.129Z,4.43
2018-07-23T23:50:55.993Z,4.10
2018-07-23T23:53:24.823Z,4.30
2018-07-23T23:55:53.738Z,3.97
2018-07-23T23:58:22.596Z,4.40
